Time;durP1;ratioP1;P1;durP2;ratioP2;P2;SDS_P1;SDS_P2;PMS_P1;PMS_P2;Temp;Humidity;BMP_temperature;BMP_pressure;BME280_temperature;BME280_humidity;BME280_pressure;Samples;Min_cycle;Max_cycle;Signal;HPM_P1;HPM_P2
2023/04/11 00:01:36;;;;;;;;;;;;;;;16.52;50.41;100239.66;5019524;28;1130;-47
2023/04/11 00:04:02;;;;;;;;;;;;;;;15.96;51.83;100240.00;5019554;28;1072;-46
2023/04/11 00:06:28;;;;;;;;;;;;;;;15.72;52.47;100236.00;5019813;28;1134;-45
2023/04/11 00:08:55;;;;;;;;;;;;;;;15.57;52.73;100238.75;5019089;28;2345;-47
2023/04/11 00:11:20;;;;;;;;;;;;;;;15.40;52.83;100245.41;5021636;28;1527;-49
2023/04/11 00:13:47;;;;;;;;;;;;;;;15.74;52.64;100238.44;5023838;28;1043;-49
2023/04/11 00:16:13;;;;;;;;;;;;;;;17.20;49.10;100234.41;5019496;28;1160;-47
2023/04/11 00:18:43;;;;;;;;;;;;;;;16.80;49.71;100236.41;5019108;28;1095;-45
2023/04/11 00:21:09;;;;;;;;;;;;;;;16.10;51.37;100229.22;5019469;28;1154;-48
2023/04/11 00:23:35;;;;;;;;;;;;;;;15.80;52.29;100220.88;5020600;28;1079;-43
2023/04/11 00:26:00;;;;;;;;;;;;;;;15.58;52.57;100210.25;5019334;28;1072;-46
2023/04/11 00:28:26;;;;;;;;;;;;;;;15.44;52.89;100211.97;5018693;28;1964;-43
2023/04/11 00:30:51;;;;;;;;;;;;;;;15.33;52.95;100205.69;5018926;28;1202;-44
2023/04/11 00:33:17;;;;;;;;;;;;;;;16.08;51.64;100202.09;5019344;28;1079;-46
2023/04/11 00:35:43;;;;;;;;;;;;;;;17.35;48.46;100195.75;5022973;28;1162;-44
2023/04/11 00:38:08;;;;;;;;;;;;;;;16.55;50.19;100199.81;5024055;28;1032;-44
2023/04/11 00:40:34;;;;;;;;;;;;;;;15.95;51.77;100198.06;5018939;28;1016;-46
2023/04/11 00:42:59;;;;;;;;;;;;;;;15.73;52.52;100191.00;5018912;28;1186;-45
2023/04/11 00:45:25;;;;;;;;;;;;;;;15.53;52.81;100188.38;5018823;28;1170;-46
2023/04/11 00:47:51;;;;;;;;;;;;;;;15.97;52.14;100186.81;5021558;28;1967;-45
2023/04/11 00:50:17;;;;;;;;;;;;;;;17.34;48.67;100174.88;5018529;28;1114;-46
2023/04/11 00:52:45;;;;;;;;;;;;;;;16.33;50.74;100168.16;5019210;28;1091;-45
2023/04/11 00:55:11;;;;;;;;;;;;;;;15.86;52.01;100164.91;5018754;28;1210;-48
2023/04/11 00:57:37;;;;;;;;;;;;;;;15.68;52.58;100163.66;5017233;28;1289;-46
2023/04/11 01:00:03;;;;;;;;;;;;;;;15.48;52.97;100158.25;5017261;28;1281;-41
2023/04/11 01:02:28;;;;;;;;;;;;;;;16.67;50.36;100150.84;5018620;28;1214;-46
2023/04/11 01:04:54;;;;;;;;;;;;;;;17.34;48.37;100135.59;5017211;28;1108;-48
2023/04/11 01:07:20;;;;;;;;;;;;;;;16.24;51.28;100120.50;5018577;28;1064;-44
2023/04/11 01:09:46;;;;;;;;;;;;;;;15.89;51.90;100139.69;5018509;28;1902;-44
2023/04/11 01:12:11;;;;;;;;;;;;;;;15.65;52.67;100147.75;5004317;28;1307;-43
2023/04/11 01:14:37;;;;;;;;;;;;;;;15.55;52.58;100137.66;5017232;28;1028;-45
2023/04/11 01:17:03;;;;;;;;;;;;;;;15.37;53.09;100128.16;5018461;28;1108;-46
2023/04/11 01:19:28;;;;;;;;;;;;;;;16.83;49.86;100123.22;5016733;28;1096;-46
2023/04/11 01:21:54;;;;;;;;;;;;;;;16.85;49.74;100132.00;5016822;28;1068;-46
2023/04/11 01:24:20;;;;;;;;;;;;;;;16.01;51.76;100122.88;5023224;28;1159;-45
2023/04/11 01:26:46;;;;;;;;;;;;;;;15.74;52.50;100126.88;5021546;28;1110;-44
2023/04/11 01:29:14;;;;;;;;;;;;;;;15.56;52.72;100113.81;5018025;28;1906;-45
2023/04/11 01:31:40;;;;;;;;;;;;;;;15.44;52.91;100118.81;5016674;28;1215;-45
2023/04/11 01:34:06;;;;;;;;;;;;;;;15.64;52.94;100109.66;5016655;28;1114;-46
2023/04/11 01:36:31;;;;;;;;;;;;;;;17.13;49.07;100099.31;5021512;28;1219;-45
2023/04/11 01:38:57;;;;;;;;;;;;;;;16.61;50.25;100102.59;5017007;28;1139;-42
2023/04/11 01:41:23;;;;;;;;;;;;;;;15.99;51.96;100092.19;5017515;28;987;-46
2023/04/11 01:43:49;;;;;;;;;;;;;;;15.74;52.51;100091.22;5016614;28;1287;-43
2023/04/11 01:46:15;;;;;;;;;;;;;;;15.51;53.03;100075.47;5016690;28;1230;-43
2023/04/11 01:48:41;;;;;;;;;;;;;;;15.39;53.00;100079.38;5024637;28;1906;-43
2023/04/11 01:51:06;;;;;;;;;;;;;;;15.56;53.11;100075.47;5019709;28;1576;-45
2023/04/11 01:53:32;;;;;;;;;;;;;;;17.05;49.56;100068.63;5016354;28;1230;-46
2023/04/11 01:55:57;;;;;;;;;;;;;;;16.65;50.15;100059.75;5017564;28;1071;-48
2023/04/11 01:58:23;;;;;;;;;;;;;;;15.96;51.94;100059.84;5000028;28;1125;-44
2023/04/11 02:00:49;;;;;;;;;;;;;;;15.73;52.43;100039.44;5022078;28;2178;-46
2023/04/11 02:03:16;;;;;;;;;;;;;;;15.59;52.90;100042.00;5017122;28;1075;-44
2023/04/11 02:05:42;;;;;;;;;;;;;;;17.10;49.36;100038.34;5049343;28;1245;-46
2023/04/11 02:08:07;;;;;;;;;;;;;;;16.55;50.58;100043.38;5016031;28;1910;-44
2023/04/11 02:10:33;;;;;;;;;;;;;;;16.03;51.70;100041.16;5017245;28;1096;-47
2023/04/11 02:12:58;;;;;;;;;;;;;;;15.70;52.48;100046.31;5016983;28;841;-49
2023/04/11 02:15:24;;;;;;;;;;;;;;;15.57;52.80;100046.94;5017353;28;1171;-43
2023/04/11 02:17:52;;;;;;;;;;;;;;;15.38;53.01;100039.38;5017168;28;1059;-47
2023/04/11 02:20:20;;;;;;;;;;;;;;;16.46;51.00;100051.44;5016997;28;1242;-46
2023/04/11 02:22:46;;;;;;;;;;;;;;;16.94;49.29;100039.66;5017454;28;1119;-41
2023/04/11 02:25:14;;;;;;;;;;;;;;;16.06;51.58;100040.56;5007128;28;1103;-44
2023/04/11 02:27:39;;;;;;;;;;;;;;;15.71;52.47;100033.41;5017033;28;1903;-46
2023/04/11 02:30:06;;;;;;;;;;;;;;;15.51;52.97;100023.44;5029867;28;1118;-46
2023/04/11 02:32:33;;;;;;;;;;;;;;;15.35;53.48;100012.56;5015770;28;1039;-46
2023/04/11 02:34:58;;;;;;;;;;;;;;;16.72;50.50;99999.00;5015170;28;1021;-46
2023/04/11 02:37:25;;;;;;;;;;;;;;;16.86;49.60;99988.13;5018917;28;880;-43
2023/04/11 02:39:50;;;;;;;;;;;;;;;16.02;51.67;99959.97;5016567;28;1096;-46
2023/04/11 02:42:16;;;;;;;;;;;;;;;15.74;52.44;99970.63;5015666;28;1147;-49
2023/04/11 02:44:41;;;;;;;;;;;;;;;15.54;53.11;99959.81;5016423;28;1290;-48
2023/04/11 02:47:07;;;;;;;;;;;;;;;15.46;53.11;99953.06;5016995;28;1051;-46
2023/04/11 02:49:34;;;;;;;;;;;;;;;16.98;49.58;99944.56;5024450;28;1906;-43
2023/04/11 02:52:00;;;;;;;;;;;;;;;16.67;50.15;99936.72;5016521;28;1183;-47
2023/04/11 02:54:26;;;;;;;;;;;;;;;16.04;51.63;99945.97;5014986;28;1255;-45
2023/04/11 02:56:54;;;;;;;;;;;;;;;15.73;52.67;99938.84;5015554;28;1294;-46
2023/04/11 02:59:20;;;;;;;;;;;;;;;15.53;52.90;99934.34;5015438;28;1158;-44
2023/04/11 03:01:46;;;;;;;;;;;;;;;15.42;52.97;99937.44;5015086;28;1312;-43
2023/04/11 03:04:12;;;;;;;;;;;;;;;16.39;51.31;99932.97;5018152;28;1138;-45
2023/04/11 03:06:58;;;;;;;;;;;;;;;17.18;48.90;99923.41;5016057;28;1154;-44
2023/04/11 03:09:24;;;;;;;;;;;;;;;16.14;51.79;99929.41;5014887;28;1985;-47
2023/04/11 03:11:50;;;;;;;;;;;;;;;15.84;52.35;99933.31;5015075;28;1128;-42
2023/04/11 03:14:15;;;;;;;;;;;;;;;15.63;52.79;99929.91;5022751;28;874;-47
2023/04/11 03:16:41;;;;;;;;;;;;;;;15.47;53.28;99921.78;5013121;28;1342;-49
2023/04/11 03:19:07;;;;;;;;;;;;;;;15.41;53.46;99925.69;5003951;28;1048;-47
2023/04/11 03:21:32;;;;;;;;;;;;;;;16.93;49.85;99920.75;5011131;28;1694;-46
2023/04/11 03:23:58;;;;;;;;;;;;;;;17.26;48.87;99920.00;5013006;28;1151;-48
2023/04/11 03:26:26;;;;;;;;;;;;;;;16.24;51.22;99918.34;5021771;28;1135;-44
2023/04/11 03:28:55;;;;;;;;;;;;;;;15.89;52.13;99916.78;5044647;28;1984;-47
2023/04/11 03:31:21;;;;;;;;;;;;;;;15.64;52.72;99915.91;5019263;28;1295;-45
2023/04/11 03:33:48;;;;;;;;;;;;;;;15.51;52.88;99924.78;5019265;28;1340;-45
2023/04/11 03:36:15;;;;;;;;;;;;;;;15.95;52.34;99921.13;5035438;28;1118;-48
2023/04/11 03:38:41;;;;;;;;;;;;;;;17.15;49.21;99924.81;5032430;28;1186;-49
2023/04/11 03:41:06;;;;;;;;;;;;;;;16.18;51.36;99929.66;5018737;28;1314;-45
2023/04/11 03:43:32;;;;;;;;;;;;;;;15.81;52.37;99926.47;5002724;28;1482;-50
2023/04/11 03:45:59;;;;;;;;;;;;;;;15.64;52.72;99924.13;5018237;28;1500;-48
2023/04/11 03:48:34;;;;;;;;;;;;;;;15.45;53.15;99931.44;5019221;28;1892;-51
2023/04/11 03:51:04;;;;;;;;;;;;;;;16.04;52.22;99915.81;5019965;28;1107;-51
2023/04/11 03:53:37;;;;;;;;;;;;;;;17.35;48.76;99920.97;5019362;28;1303;-60
2023/04/11 03:56:17;;;;;;;;;;;;;;;16.36;51.06;99917.09;5049236;28;1306;-49
2023/04/11 03:58:42;;;;;;;;;;;;;;;15.89;52.48;99919.53;5025371;28;1584;-51
2023/04/11 04:01:08;;;;;;;;;;;;;;;15.65;52.72;99920.25;5033661;28;1314;-47
2023/04/11 04:03:34;;;;;;;;;;;;;;;15.50;53.00;99920.41;5059841;28;1181;-49
2023/04/11 04:06:01;;;;;;;;;;;;;;;15.32;53.34;99925.50;5018022;28;1131;-49
2023/04/11 04:08:27;;;;;;;;;;;;;;;16.24;51.67;99933.97;5018328;28;1914;-51
2023/04/11 04:10:52;;;;;;;;;;;;;;;17.43;48.60;99920.28;5019169;28;1151;-52
2023/04/11 04:13:18;;;;;;;;;;;;;;;16.68;50.21;99930.13;5019752;28;1036;-49
2023/04/11 04:15:59;;;;;;;;;;;;;;;16.07;51.93;99921.56;5018206;28;1324;-55
2023/04/11 04:18:26;;;;;;;;;;;;;;;15.78;52.59;99916.06;5018306;28;1167;-50
2023/04/11 04:20:52;;;;;;;;;;;;;;;15.61;52.96;99910.19;5018370;28;1209;-51
2023/04/11 04:23:19;;;;;;;;;;;;;;;16.16;51.88;99909.91;5018203;28;1110;-49
2023/04/11 04:26:02;;;;;;;;;;;;;;;17.28;48.82;99901.28;5026325;28;1262;-49
2023/04/11 04:28:30;;;;;;;;;;;;;;;16.22;51.41;99897.78;5018176;28;1906;-49
2023/04/11 04:31:00;;;;;;;;;;;;;;;15.87;52.34;99889.66;5034399;28;1406;-49
2023/04/11 04:33:32;;;;;;;;;;;;;;;15.71;52.71;99885.41;5031560;28;1660;-50
2023/04/11 04:36:01;;;;;;;;;;;;;;;15.53;53.15;99882.28;5033029;28;1307;-50
2023/04/11 04:38:29;;;;;;;;;;;;;;;15.38;53.16;99891.47;5025817;28;1308;-45
2023/04/11 04:40:58;;;;;;;;;;;;;;;16.75;50.50;99880.38;5030950;28;1296;-50
2023/04/11 04:43:26;;;;;;;;;;;;;;;17.24;48.71;99878.28;5017896;28;1452;-48
2023/04/11 04:46:14;;;;;;;;;;;;;;;16.16;51.48;99877.84;5050762;28;1209;-51
2023/04/11 04:48:47;;;;;;;;;;;;;;;15.81;52.53;99874.38;5017191;28;1914;-46
2023/04/11 04:51:13;;;;;;;;;;;;;;;15.65;52.87;99872.88;5030830;28;1135;-50
2023/04/11 04:53:39;;;;;;;;;;;;;;;15.46;53.20;99854.44;5017489;28;1496;-48
2023/04/11 04:56:07;;;;;;;;;;;;;;;16.52;50.99;99857.34;5017652;28;1342;-44
2023/04/11 04:58:37;;;;;;;;;;;;;;;16.95;49.77;99843.56;5017790;28;1311;-45
2023/04/11 05:01:07;;;;;;;;;;;;;;;16.10;51.63;99846.06;5017602;28;1215;-44
2023/04/11 05:03:34;;;;;;;;;;;;;;;15.79;52.37;99848.34;5023813;28;1290;-45
2023/04/11 05:06:02;;;;;;;;;;;;;;;15.59;53.13;99836.47;5017257;28;1378;-49
2023/04/11 05:08:28;;;;;;;;;;;;;;;16.88;50.21;99832.97;5016500;28;1914;-51
2023/04/11 05:10:58;;;;;;;;;;;;;;;15.95;51.66;99832.56;5017367;28;1374;-51
2023/04/11 05:13:24;;;;;;;;;;;;;;;16.03;52.06;99827.25;5017296;28;2106;-47
2023/04/11 05:15:50;;;;;;;;;;;;;;;16.58;50.69;99824.06;5017458;28;1239;-48
2023/04/11 05:18:16;;;;;;;;;;;;;;;15.76;51.23;99824.25;5016901;28;1198;-47
2023/04/11 05:20:43;;;;;;;;;;;;;;;15.51;50.29;99820.66;5017253;28;1261;-47
2023/04/11 05:23:12;;;;;;;;;;;;;;;16.67;50.55;99813.22;5017180;28;1115;-44
2023/04/11 05:25:39;;;;;;;;;;;;;;;15.83;51.02;99800.06;5002448;28;1275;-49
2023/04/11 05:28:08;;;;;;;;;;;;;;;17.04;50.02;99799.75;5023001;28;1977;-50
2023/04/11 05:30:33;;;;;;;;;;;;;;;16.47;50.84;99794.31;5015899;28;1189;-49
2023/04/11 05:33:00;;;;;;;;;;;;;;;15.91;50.59;99785.72;5016825;28;1164;-44
2023/04/11 05:35:25;;;;;;;;;;;;;;;15.71;49.77;99784.00;5018367;28;1136;-46
2023/04/11 05:37:53;;;;;;;;;;;;;;;15.94;50.23;99782.38;5019522;28;1315;-47
2023/04/11 05:40:19;;;;;;;;;;;;;;;16.23;51.10;99773.25;5026745;28;1139;-47
2023/04/11 05:42:44;;;;;;;;;;;;;;;15.98;51.57;99783.44;5010779;28;1179;-47
2023/04/11 05:45:10;;;;;;;;;;;;;;;17.75;49.06;99767.41;5012046;28;1273;-40
2023/04/11 05:47:35;;;;;;;;;;;;;;;16.41;50.88;99777.91;5017648;28;1039;-44
2023/04/11 05:50:01;;;;;;;;;;;;;;;16.01;50.04;99774.63;5019188;28;1981;-47
2023/04/11 05:52:27;;;;;;;;;;;;;;;15.84;49.16;99766.88;5017073;28;1301;-44
2023/04/11 05:54:52;;;;;;;;;;;;;;;16.64;50.73;99772.63;4998917;28;1060;-43
2023/04/11 05:57:18;;;;;;;;;;;;;;;16.06;50.86;99763.59;5003057;28;1216;-47
2023/04/11 05:59:48;;;;;;;;;;;;;;;16.56;50.94;99765.06;5015742;28;1222;-48
2023/04/11 06:02:14;;;;;;;;;;;;;;;17.00;50.16;99765.75;5011057;28;1021;-45
2023/04/11 06:04:40;;;;;;;;;;;;;;;16.21;50.42;99756.25;5021734;28;1050;-45
2023/04/11 06:07:07;;;;;;;;;;;;;;;16.82;51.02;99765.50;5019277;28;1000;-46
2023/04/11 06:09:32;;;;;;;;;;;;;;;16.35;50.94;99765.38;5017302;28;1910;-44
2023/04/11 06:11:58;;;;;;;;;;;;;;;16.01;50.73;99771.06;5006464;28;1238;-46
2023/04/11 06:14:23;;;;;;;;;;;;;;;17.04;50.34;99770.38;5015078;28;1177;-44
2023/04/11 06:16:49;;;;;;;;;;;;;;;16.27;50.59;99757.00;5017122;28;1091;-46
2023/04/11 06:19:15;;;;;;;;;;;;;;;16.11;50.04;99762.69;5017133;28;1083;-45
2023/04/11 06:21:40;;;;;;;;;;;;;;;16.67;50.72;99765.75;5016884;28;1224;-46
2023/04/11 06:24:09;;;;;;;;;;;;;;;16.18;49.86;99749.44;5016826;28;1087;-43
2023/04/11 06:26:35;;;;;;;;;;;;;;;17.52;49.63;99754.69;5011994;28;1122;-47
2023/04/11 06:29:03;;;;;;;;;;;;;;;16.56;50.60;99762.34;5008578;28;1997;-43
2023/04/11 06:31:29;;;;;;;;;;;;;;;16.19;49.87;99751.06;5016645;28;1011;-44
2023/04/11 06:33:55;;;;;;;;;;;;;;;15.93;49.02;99752.53;5016968;28;1182;-46
2023/04/11 06:36:20;;;;;;;;;;;;;;;15.74;48.49;99740.38;5016928;28;1054;-43
2023/04/11 06:38:46;;;;;;;;;;;;;;;15.68;47.87;99747.06;5022642;28;1128;-46
2023/04/11 06:41:11;;;;;;;;;;;;;;;16.45;49.80;99728.72;5019284;28;1226;-45
2023/04/11 06:43:37;;;;;;;;;;;;;;;15.94;49.53;99741.25;5017364;28;1186;-41
2023/04/11 06:46:02;;;;;;;;;;;;;;;16.87;50.11;99737.13;5016627;28;1492;-42
2023/04/11 06:48:28;;;;;;;;;;;;;;;16.43;51.00;99742.75;5016604;28;1985;-43
2023/04/11 06:50:54;;;;;;;;;;;;;;;16.04;49.60;99738.38;5018832;28;1341;-43
2023/04/11 06:53:19;;;;;;;;;;;;;;;17.35;49.78;99739.59;5016833;28;1016;-47
2023/04/11 06:55:48;;;;;;;;;;;;;;;16.33;50.41;99731.94;5016782;28;1102;-45
2023/04/11 06:58:14;;;;;;;;;;;;;;;16.89;50.62;99718.47;5016672;28;1372;-43
2023/04/11 07:00:40;;;;;;;;;;;;;;;16.89;50.30;99718.47;5016202;28;1213;-46
2023/04/11 07:03:07;;;;;;;;;;;;;;;16.24;50.11;99704.38;5023427;28;1052;-44
2023/04/11 07:05:33;;;;;;;;;;;;;;;16.01;49.35;99699.78;5017979;28;1042;-48
2023/04/11 07:07:59;;;;;;;;;;;;;;;16.92;50.55;99706.88;5016343;28;1983;-44
2023/04/11 07:10:25;;;;;;;;;;;;;;;16.54;51.29;99706.94;5016552;28;1155;-45
2023/04/11 07:12:51;;;;;;;;;;;;;;;18.21;48.72;99712.53;5016578;28;1209;-47
2023/04/11 07:15:16;;;;;;;;;;;;;;;17.22;50.29;99700.00;5018839;28;1179;-47
2023/04/11 07:17:42;;;;;;;;;;;;;;;16.66;50.16;99712.78;5016811;28;1087;-47
2023/04/11 07:20:08;;;;;;;;;;;;;;;16.32;49.13;99705.63;5016340;28;1190;-47
2023/04/11 07:22:35;;;;;;;;;;;;;;;16.14;48.25;99698.22;5016441;28;1107;-46
2023/04/11 07:25:04;;;;;;;;;;;;;;;17.02;50.03;99703.13;5000105;28;1127;-48
2023/04/11 07:27:31;;;;;;;;;;;;;;;16.31;49.81;99701.25;5015267;28;1045;-46
2023/04/11 07:29:57;;;;;;;;;;;;;;;17.72;49.63;99702.00;5018086;28;1910;-41
2023/04/11 07:32:22;;;;;;;;;;;;;;;16.96;50.54;99691.44;5016392;28;1391;-46
2023/04/11 07:34:48;;;;;;;;;;;;;;;16.53;49.64;99689.63;5016400;28;1143;-44
2023/04/11 07:37:15;;;;;;;;;;;;;;;16.25;48.42;99694.22;5015766;28;1091;-44
2023/04/11 07:39:40;;;;;;;;;;;;;;;16.12;47.83;99681.22;5020923;28;1064;-44
2023/04/11 07:42:06;;;;;;;;;;;;;;;16.95;49.28;99692.53;5011942;28;1329;-43
2023/04/11 07:44:31;;;;;;;;;;;;;;;16.29;49.32;99689.75;5015666;28;1111;-48
2023/04/11 07:46:58;;;;;;;;;;;;;;;16.01;48.78;99688.81;5015844;28;1037;-45
2023/04/11 07:49:23;;;;;;;;;;;;;;;16.84;49.55;99686.38;5016071;28;1906;-47
2023/04/11 07:51:49;;;;;;;;;;;;;;;16.31;49.35;99682.03;5018066;28;873;-47
2023/04/11 07:54:15;;;;;;;;;;;;;;;16.47;49.92;99679.06;5015831;28;1067;-48
2023/04/11 07:56:41;;;;;;;;;;;;;;;16.86;49.84;99664.13;5016519;28;1106;-45
2023/04/11 07:59:06;;;;;;;;;;;;;;;16.28;49.59;99660.69;5015989;28;1138;-47
2023/04/11 08:01:32;;;;;;;;;;;;;;;16.17;48.78;99653.75;5015623;28;1147;-45
2023/04/11 08:03:58;;;;;;;;;;;;;;;16.94;49.94;99652.44;5016651;28;913;-46
2023/04/11 08:06:23;;;;;;;;;;;;;;;16.30;49.54;99644.75;5015828;28;1139;-47
2023/04/11 08:08:49;;;;;;;;;;;;;;;16.04;48.84;99623.22;5015793;28;1964;-45
2023/04/11 08:11:15;;;;;;;;;;;;;;;16.01;48.40;99640.25;5014665;28;1210;-45
2023/04/11 08:13:41;;;;;;;;;;;;;;;17.18;49.30;99634.97;5016439;28;1194;-49
2023/04/11 08:16:08;;;;;;;;;;;;;;;16.27;49.72;99636.31;5026863;28;1146;-46
2023/04/11 08:18:34;;;;;;;;;;;;;;;17.58;49.21;99635.25;5006342;28;1043;-47
2023/04/11 08:21:00;;;;;;;;;;;;;;;17.01;50.15;99628.19;5019259;28;1104;-48
2023/04/11 08:23:25;;;;;;;;;;;;;;;16.52;49.50;99624.09;5019370;28;1092;-47
2023/04/11 08:25:51;;;;;;;;;;;;;;;16.28;48.44;99625.03;5018733;28;1048;-45
2023/04/11 08:28:17;;;;;;;;;;;;;;;16.04;47.67;99616.91;5024687;28;1981;-43
2023/04/11 08:30:42;;;;;;;;;;;;;;;16.33;48.57;99624.97;5019114;28;1107;-47
2023/04/11 08:33:08;;;;;;;;;;;;;;;16.60;49.77;99615.97;5019060;28;1075;-47
2023/04/11 08:35:34;;;;;;;;;;;;;;;16.31;49.54;99604.41;5019478;28;1146;-49
2023/04/11 08:38:00;;;;;;;;;;;;;;;17.99;48.91;99617.03;5019160;28;1118;-46
2023/04/11 08:40:26;;;;;;;;;;;;;;;16.80;50.06;99610.41;5020408;28;892;-50
2023/04/11 08:42:57;;;;;;;;;;;;;;;16.33;49.18;99593.97;5018936;28;1099;-44
2023/04/11 08:45:22;;;;;;;;;;;;;;;16.19;48.14;99591.19;5019167;28;1246;-44
2023/04/11 08:47:48;;;;;;;;;;;;;;;16.86;49.65;99599.03;5018678;28;1925;-48
2023/04/11 08:50:14;;;;;;;;;;;;;;;16.32;49.45;99595.88;5018957;28;1087;-44
2023/04/11 08:52:39;;;;;;;;;;;;;;;16.07;48.46;99587.00;5027484;28;1159;-45
2023/04/11 08:55:05;;;;;;;;;;;;;;;16.74;49.14;99587.75;5017753;28;1148;-47
2023/04/11 08:57:31;;;;;;;;;;;;;;;16.54;49.73;99578.75;5018323;28;1123;-45
2023/04/11 08:59:59;;;;;;;;;;;;;;;17.07;49.64;99577.50;5005429;28;1215;-50
2023/04/11 09:02:24;;;;;;;;;;;;;;;18.13;48.51;99574.59;5018082;28;1122;-45
2023/04/11 09:04:50;;;;;;;;;;;;;;;16.90;49.72;99574.53;5017603;28;1100;-44
2023/04/11 09:07:15;;;;;;;;;;;;;;;16.49;49.14;99569.81;5026845;28;1016;-46
2023/04/11 09:09:42;;;;;;;;;;;;;;;17.07;49.93;99563.78;5018288;28;1981;-44
2023/04/11 09:12:08;;;;;;;;;;;;;;;16.68;50.22;99576.03;5018827;28;1182;-48
2023/04/11 09:14:33;;;;;;;;;;;;;;;18.38;48.07;99568.75;5018358;28;1111;-50
2023/04/11 09:16:59;;;;;;;;;;;;;;;17.54;49.71;99557.28;5022465;28;926;-44
2023/04/11 09:19:26;;;;;;;;;;;;;;;16.98;49.61;99546.38;5004859;28;1170;-48
2023/04/11 09:21:52;;;;;;;;;;;;;;;16.57;48.95;99545.22;5018635;28;1155;-46
2023/04/11 09:24:17;;;;;;;;;;;;;;;17.33;49.63;99546.72;5018183;28;1023;-46
2023/04/11 09:26:43;;;;;;;;;;;;;;;16.60;49.83;99541.06;5017101;28;1139;-48
2023/04/11 09:29:09;;;;;;;;;;;;;;;16.42;48.33;99540.84;5021462;28;1906;-43
2023/04/11 09:31:41;;;;;;;;;;;;;;;17.15;49.47;99525.72;5018062;28;1007;-44
2023/04/11 09:34:06;;;;;;;;;;;;;;;16.69;49.50;99519.19;5017852;28;1182;-43
2023/04/11 09:36:32;;;;;;;;;;;;;;;16.30;48.76;99515.00;5018116;28;1226;-45
2023/04/11 09:38:58;;;;;;;;;;;;;;;16.32;47.31;99499.88;5018332;28;1067;-48
2023/04/11 09:41:33;;;;;;;;;;;;;;;16.66;48.53;99515.16;5028453;28;1059;-49
2023/04/11 09:43:59;;;;;;;;;;;;;;;16.57;49.04;99493.09;5017952;28;1055;-49
2023/04/11 09:46:24;;;;;;;;;;;;;;;16.17;48.37;99492.75;5017821;28;1155;-47
2023/04/11 09:48:50;;;;;;;;;;;;;;;16.03;47.67;99472.69;5017369;28;1962;-49
2023/04/11 09:51:16;;;;;;;;;;;;;;;16.96;48.36;99485.47;5004835;28;989;-48
2023/04/11 09:53:42;;;;;;;;;;;;;;;16.29;48.63;99475.00;5022972;28;953;-49
2023/04/11 09:56:08;;;;;;;;;;;;;;;16.53;48.88;99491.25;5017733;28;1118;-47
2023/04/11 09:58:35;;;;;;;;;;;;;;;16.95;49.13;99474.81;5017850;28;1075;-47
2023/04/11 10:01:00;;;;;;;;;;;;;;;16.34;48.94;99481.19;5003229;28;1159;-45
2023/04/11 10:03:26;;;;;;;;;;;;;;;16.04;48.26;99468.84;5011267;28;1131;-50
2023/04/11 10:05:56;;;;;;;;;;;;;;;16.79;49.14;99463.28;5009905;28;1140;-43
2023/04/11 10:08:31;;;;;;;;;;;;;;;16.43;49.25;99460.16;5031152;28;1906;-40
2023/04/11 10:10:58;;;;;;;;;;;;;;;16.12;48.29;99448.13;5004488;28;1032;-46
2023/04/11 10:13:36;;;;;;;;;;;;;;;16.97;48.89;99456.91;5017005;28;1128;-46
2023/04/11 10:16:07;;;;;;;;;;;;;;;16.58;49.17;99442.56;5019091;28;1139;-48
2023/04/11 10:18:33;;;;;;;;;;;;;;;16.21;49.39;99441.66;5021127;28;1142;-47
2023/04/11 10:21:00;;;;;;;;;;;;;;;17.18;49.22;99437.19;5017453;28;1484;-47
2023/04/11 10:23:25;;;;;;;;;;;;;;;16.49;49.35;99432.63;5017283;28;1039;-47
2023/04/11 10:25:55;;;;;;;;;;;;;;;16.17;48.44;99426.94;5017253;28;1197;-47
2023/04/11 10:28:29;;;;;;;;;;;;;;;16.48;48.64;99428.25;5016828;28;1906;-47
2023/04/11 10:30:58;;;;;;;;;;;;;;;16.70;49.12;99430.25;5016959;28;1004;-45
2023/04/11 10:33:25;;;;;;;;;;;;;;;16.18;48.87;99425.00;5017204;28;1172;-45
2023/04/11 10:36:04;;;;;;;;;;;;;;;17.36;48.54;99425.25;5016778;28;1250;-46
2023/04/11 10:38:36;;;;;;;;;;;;;;;16.40;49.30;99419.63;5017054;28;1174;-46
2023/04/11 10:41:20;;;;;;;;;;;;;;;16.10;48.26;99423.75;5017098;28;1084;-44
2023/04/11 10:43:46;;;;;;;;;;;;;;;17.24;48.80;99394.75;5016614;28;1158;-47
2023/04/11 10:46:18;;;;;;;;;;;;;;;16.57;48.97;99405.25;5016871;28;1198;-47
2023/04/11 10:49:03;;;;;;;;;;;;;;;16.22;48.26;99395.84;5016845;28;1922;-47
2023/04/11 10:51:30;;;;;;;;;;;;;;;17.05;48.82;99392.97;5016952;28;996;-49
2023/04/11 10:53:58;;;;;;;;;;;;;;;16.33;48.92;99394.53;5004001;28;1349;-46
2023/04/11 10:56:42;;;;;;;;;;;;;;;16.63;49.27;99396.94;5016404;28;1025;-46
2023/04/11 10:59:37;;;;;;;;;;;;;;;16.49;49.46;99394.19;5016795;28;1223;-44
2023/04/11 11:02:03;;;;;;;;;;;;;;;16.18;48.15;99386.59;5011439;28;1651;-46
2023/04/11 11:04:35;;;;;;;;;;;;;;;16.05;47.53;99386.28;5019814;28;1285;-45
2023/04/11 11:07:04;;;;;;;;;;;;;;;15.87;46.93;99389.94;5021787;28;1066;-49
2023/04/11 11:09:29;;;;;;;;;;;;;;;17.21;48.48;99390.69;5016346;28;1971;-45
2023/04/11 11:12:06;;;;;;;;;;;;;;;16.34;49.01;99398.91;5003417;28;1395;-48
2023/04/11 11:14:32;;;;;;;;;;;;;;;17.66;48.31;99389.06;5004814;28;1274;-45
2023/04/11 11:16:57;;;;;;;;;;;;;;;17.36;48.89;99378.53;5011083;28;1334;-48
2023/04/11 11:19:23;;;;;;;;;;;;;;;16.55;49.11;99373.75;4996942;28;1341;-47
2023/04/11 11:21:50;;;;;;;;;;;;;;;16.35;48.44;99375.81;5012132;28;1088;-49
2023/04/11 11:24:22;;;;;;;;;;;;;;;16.94;49.50;99372.38;5016045;28;1082;-46
2023/04/11 11:26:49;;;;;;;;;;;;;;;16.40;49.11;99362.00;5008012;28;1103;-47
2023/04/11 11:29:15;;;;;;;;;;;;;;;16.13;48.02;99367.50;5003700;28;1914;-45
2023/04/11 11:31:41;;;;;;;;;;;;;;;16.94;48.76;99355.91;5009085;28;1545;-48
2023/04/11 11:34:07;;;;;;;;;;;;;;;16.24;49.12;99363.44;5008819;28;1092;-46
2023/04/11 11:36:43;;;;;;;;;;;;;;;15.94;48.25;99343.75;4996596;28;1038;-48
2023/04/11 11:39:09;;;;;;;;;;;;;;;15.88;47.55;99350.44;5008799;28;1395;-49
2023/04/11 11:41:34;;;;;;;;;;;;;;;16.68;48.71;99350.97;5021543;28;1026;-47
2023/04/11 11:44:01;;;;;;;;;;;;;;;16.25;48.76;99354.91;5015235;28;1169;-45
2023/04/11 11:46:29;;;;;;;;;;;;;;;17.87;48.05;99339.84;5003820;28;1037;-46
2023/04/11 11:49:01;;;;;;;;;;;;;;;17.85;48.74;99348.41;5010833;28;1918;-46
2023/04/11 11:51:48;;;;;;;;;;;;;;;16.74;49.75;99340.69;5007554;28;1122;-46
2023/04/11 11:54:13;;;;;;;;;;;;;;;16.37;48.59;99343.41;5030932;28;1107;-49
2023/04/11 11:56:39;;;;;;;;;;;;;;;16.64;49.03;99335.44;5020085;28;1052;-50
2023/04/11 11:59:05;;;;;;;;;;;;;;;16.60;49.09;99337.97;5019863;28;1087;-48
2023/04/11 12:01:34;;;;;;;;;;;;;;;16.28;48.23;99342.50;5020094;28;1015;-47
2023/04/11 12:04:00;;;;;;;;;;;;;;;16.13;47.96;99337.34;5010765;28;1415;-48
2023/04/11 12:06:30;;;;;;;;;;;;;;;16.86;49.19;99331.94;5015284;28;981;-47
2023/04/11 12:09:08;;;;;;;;;;;;;;;16.28;48.89;99339.75;5018479;28;1914;-46
2023/04/11 12:11:38;;;;;;;;;;;;;;;17.54;48.58;99329.97;5019353;28;1011;-44
2023/04/11 12:14:03;;;;;;;;;;;;;;;16.67;49.38;99330.13;5019845;28;1104;-45
2023/04/11 12:16:29;;;;;;;;;;;;;;;16.27;48.80;99321.69;5019267;28;1082;-48
2023/04/11 12:18:56;;;;;;;;;;;;;;;16.12;47.71;99328.31;5022409;28;898;-47
2023/04/11 12:21:22;;;;;;;;;;;;;;;16.75;48.52;99323.91;5019527;28;1012;-49
2023/04/11 12:23:47;;;;;;;;;;;;;;;16.36;48.55;99316.28;5019198;28;1163;-47
2023/04/11 12:26:13;;;;;;;;;;;;;;;17.62;48.63;99306.41;5019654;28;1106;-47
2023/04/11 12:28:38;;;;;;;;;;;;;;;17.74;48.49;99308.53;5019418;28;1906;-48
2023/04/11 12:31:04;;;;;;;;;;;;;;;16.68;49.87;99300.78;5024725;28;963;-48
2023/04/11 12:33:30;;;;;;;;;;;;;;;16.60;48.15;99292.13;5019411;28;1031;-48
2023/04/11 12:35:55;;;;;;;;;;;;;;;16.31;47.60;99297.19;5019168;28;1202;-43
2023/04/11 12:38:21;;;;;;;;;;;;;;;16.83;49.02;99305.06;5019284;28;1146;-50
2023/04/11 12:40:47;;;;;;;;;;;;;;;16.47;48.79;99282.03;5005084;28;1149;-50
2023/04/11 12:43:12;;;;;;;;;;;;;;;16.65;48.89;99295.88;5018708;28;1014;-48
2023/04/11 12:45:38;;;;;;;;;;;;;;;17.30;49.07;99294.59;5018562;28;1147;-49
2023/04/11 12:48:03;;;;;;;;;;;;;;;16.52;49.24;99301.13;5019396;28;1910;-46
2023/04/11 12:50:29;;;;;;;;;;;;;;;16.46;48.76;99298.78;5018659;28;1068;-49
2023/04/11 12:52:55;;;;;;;;;;;;;;;17.04;49.33;99288.94;5019288;28;1159;-45
2023/04/11 12:55:21;;;;;;;;;;;;;;;16.50;49.05;99289.63;5025354;28;1034;-48